Time;durP1;ratioP1;P1;durP2;ratioP2;P2;SDS_P1;SDS_P2;PMS_P1;PMS_P2;Temp;Humidity;BMP_temperature;BMP_pressure;BME280_temperature;BME280_humidity;BME280_pressure;Samples;Min_cycle;Max_cycle;Signal;HPM_P1;HPM_P2
2021/04/08 00:00:53;;;;;;;13.40;8.23;;;;;;;2.15;72.78;100073.83;1655845;83;25953;-62
2021/04/08 00:03:21;;;;;;;11.57;7.10;;;;;;;2.19;72.88;100078.16;1687721;83;26072;-62
2021/04/08 00:05:49;;;;;;;11.38;6.90;;;;;;;2.23;73.46;100078.52;1686551;83;26418;-62
2021/04/08 00:08:16;;;;;;;15.38;7.40;;;;;;;2.27;73.60;100076.24;1649344;83;28386;-62
2021/04/08 00:10:44;;;;;;;10.82;6.70;;;;;;;2.28;73.45;100075.80;1644432;86;25936;-62
2021/04/08 00:13:12;;;;;;;12.73;7.53;;;;;;;2.32;73.79;100070.00;1642922;84;25830;-62
2021/04/08 00:15:41;;;;;;;12.50;6.45;;;;;;;2.33;73.84;100073.94;1725694;81;26037;-62
2021/04/08 00:18:12;;;;;;;12.88;6.30;;;;;;;2.37;74.31;100069.01;1699883;82;25941;-62
2021/04/08 00:20:40;;;;;;;12.50;6.67;;;;;;;2.37;74.51;100076.07;1696003;82;27146;-62
2021/04/08 00:23:08;;;;;;;9.80;5.35;;;;;;;2.36;74.83;100074.33;1685221;82;26216;-62
2021/04/08 00:25:39;;;;;;;9.13;6.17;;;;;;;2.36;74.97;100069.03;1709765;81;25836;-62
2021/04/08 00:28:07;;;;;;;10.28;6.08;;;;;;;2.35;75.43;100091.97;1691358;81;26034;-62
2021/04/08 00:30:43;;;;;;;10.85;6.62;;;;;;;2.36;75.29;100085.77;1656590;84;25835;-62
2021/04/08 00:33:13;;;;;;;11.93;6.37;;;;;;;2.34;75.03;100076.12;1643866;84;27922;-61
2021/04/08 00:35:44;;;;;;;10.32;5.80;;;;;;;2.32;75.00;100076.61;1628701;84;25867;-62
2021/04/08 00:38:15;;;;;;;16.57;6.20;;;;;;;2.32;74.94;100080.58;1669513;84;25867;-61
2021/04/08 00:40:44;;;;;;;10.75;6.15;;;;;;;2.33;74.96;100079.22;1656780;83;26040;-61
2021/04/08 00:43:12;;;;;;;12.50;6.05;;;;;;;2.33;74.99;100088.92;1696626;82;25804;-62
2021/04/08 00:45:42;;;;;;;10.38;6.25;;;;;;;2.33;74.91;100092.45;1690401;82;28324;-62
2021/04/08 00:48:10;;;;;;;10.33;5.23;;;;;;;2.37;75.07;100094.13;1703266;81;25776;-61
2021/04/08 00:50:37;;;;;;;8.70;5.62;;;;;;;2.37;75.04;100099.42;1700116;82;25870;-61
2021/04/08 00:53:10;;;;;;;7.62;4.85;;;;;;;2.41;75.30;100100.23;1693701;82;26357;-61
2021/04/08 00:55:42;;;;;;;9.63;5.83;;;;;;;2.42;75.60;100105.95;1682768;83;25835;-61
2021/04/08 00:58:11;;;;;;;9.65;5.83;;;;;;;2.42;75.43;100105.95;1711182;81;25877;-61
2021/04/08 01:00:42;;;;;;;9.28;4.67;;;;;;;2.43;75.32;100110.34;1693095;82;25844;-61
2021/04/08 01:03:12;;;;;;;7.83;4.87;;;;;;;2.44;75.22;100111.63;1689716;83;25933;-61
2021/04/08 01:05:41;;;;;;;7.83;4.95;;;;;;;2.45;75.29;100121.31;1687945;83;25863;-62
2021/04/08 01:08:08;;;;;;;8.73;4.60;;;;;;;2.46;75.48;100119.53;1694403;82;25900;-61
2021/04/08 01:10:36;;;;;;;8.60;5.20;;;;;;;2.46;75.57;100123.05;1697876;82;27728;-62
2021/04/08 01:13:08;;;;;;;7.70;4.90;;;;;;;2.45;75.49;100126.59;1698387;81;26393;-61
2021/04/08 01:15:36;;;;;;;9.48;4.75;;;;;;;2.46;75.71;100130.12;1670348;81;25833;-62
2021/04/08 01:18:41;;;;;;;4.25;3.52;;;;;;;2.44;75.61;100126.62;1695958;82;26775;-61
2021/04/08 01:21:24;;;;;;;8.65;3.98;;;;;;;2.45;76.02;100128.37;1706715;82;25805;-60
2021/04/08 01:24:42;;;;;;;8.13;3.87;;;;;;;2.41;75.99;100154.00;1699930;81;28468;-61
2021/04/08 01:27:21;;;;;;;7.90;3.17;;;;;;;2.37;76.12;100143.06;1688390;82;25810;-61
2021/04/08 01:30:19;;;;;;;13.55;4.30;;;;;;;2.32;76.23;100134.78;1680151;83;26321;-61
2021/04/08 01:32:56;;;;;;;10.18;3.87;;;;;;;2.27;76.41;100152.05;1706257;82;25894;-60
2021/04/08 01:35:28;;;;;;;6.15;3.47;;;;;;;2.23;76.33;100149.05;1687295;83;26171;-59
2021/04/08 01:38:10;;;;;;;4.90;3.60;;;;;;;2.21;76.47;100146.42;1657239;83;25832;-60
2021/04/08 01:40:39;;;;;;;8.03;4.30;;;;;;;2.18;76.30;100148.25;1666081;83;25872;-61
2021/04/08 01:43:08;;;;;;;4.47;2.85;;;;;;;2.15;76.41;100153.14;1658856;84;25848;-60
2021/04/08 01:45:38;;;;;;;6.47;3.75;;;;;;;2.15;77.07;100149.17;1665724;84;26132;-59
2021/04/08 01:48:08;;;;;;;9.85;3.40;;;;;;;2.12;76.93;100160.25;1656678;84;25960;-60
2021/04/08 01:50:36;;;;;;;6.17;3.08;;;;;;;2.11;77.02;100163.34;1694914;82;27873;-59
2021/04/08 01:53:06;;;;;;;5.97;2.98;;;;;;;2.12;76.89;100165.09;1686484;82;26579;-60
2021/04/08 01:55:37;;;;;;;6.70;2.92;;;;;;;2.12;76.90;100174.34;1697586;82;25804;-60
2021/04/08 01:58:06;;;;;;;5.12;2.67;;;;;;;2.13;77.08;100173.44;1699975;81;25982;-60
2021/04/08 02:00:35;;;;;;;6.83;2.58;;;;;;;2.14;77.21;100171.67;1690572;83;26493;-60
2021/04/08 02:03:05;;;;;;;4.80;2.20;;;;;;;2.15;77.42;100182.67;1685978;81;28442;-61
2021/04/08 02:05:36;;;;;;;4.17;2.57;;;;;;;2.15;77.29;100182.22;1686379;81;26393;-60
2021/04/08 02:08:06;;;;;;;8.37;3.03;;;;;;;2.16;77.35;100181.77;1685085;82;26515;-60
2021/04/08 02:10:36;;;;;;;9.83;2.30;;;;;;;2.15;77.42;100190.59;1698671;82;26588;-60
2021/04/08 02:13:09;;;;;;;10.33;2.30;;;;;;;2.16;77.67;100180.45;1704941;82;26586;-60
2021/04/08 02:15:40;;;;;;;6.40;2.45;;;;;;;2.15;77.71;100185.31;1666144;84;27550;-60
2021/04/08 02:18:17;;;;;;;5.90;2.98;;;;;;;2.16;77.81;100193.67;1678609;83;26188;-60
2021/04/08 02:20:49;;;;;;;6.10;2.47;;;;;;;2.16;77.82;100209.53;1677213;83;26466;-61
2021/04/08 02:23:21;;;;;;;15.98;3.17;;;;;;;2.14;77.77;100208.23;1676740;83;27082;-61
2021/04/08 02:25:53;;;;;;;4.17;1.92;;;;;;;2.15;77.65;100207.34;1661445;84;26178;-61
2021/04/08 02:28:22;;;;;;;4.75;1.87;;;;;;;2.15;77.73;100206.02;1670053;83;28207;-61
2021/04/08 02:30:51;;;;;;;8.83;2.33;;;;;;;2.16;77.74;100218.78;1689571;82;26027;-60
2021/04/08 02:33:30;;;;;;;7.05;2.33;;;;;;;2.16;77.69;100207.77;1695958;81;25504;-60
2021/04/08 02:36:00;;;;;;;5.62;2.00;;;;;;;2.16;77.69;100219.66;1672631;82;26764;-60
2021/04/08 02:38:33;;;;;;;7.85;2.17;;;;;;;2.19;77.78;100214.77;1683683;83;25646;-60
2021/04/08 02:41:08;;;;;;;12.07;2.30;;;;;;;2.19;77.65;100230.19;1691867;82;26312;-61
2021/04/08 02:43:37;;;;;;;5.10;1.95;;;;;;;2.19;77.71;100227.54;1670965;83;25838;-60
2021/04/08 02:46:04;;;;;;;9.75;2.70;;;;;;;2.20;77.62;100229.28;1668670;82;25886;-60
2021/04/08 02:48:34;;;;;;;6.17;2.08;;;;;;;2.21;77.57;100230.16;1665674;83;25957;-60
2021/04/08 02:51:10;;;;;;;4.47;1.55;;;;;;;2.20;77.45;100231.06;1683850;82;25877;-60
2021/04/08 02:54:18;;;;;;;11.95;2.50;;;;;;;2.10;77.40;100225.49;1666477;83;27796;-60
2021/04/08 02:56:56;;;;;;;5.55;1.65;;;;;;;2.13;77.43;100243.50;1651427;85;25989;-61
2021/04/08 02:59:31;;;;;;;12.10;2.25;;;;;;;2.12;77.52;100251.45;1658838;83;25926;-60
2021/04/08 03:02:14;;;;;;;4.20;1.30;;;;;;;2.10;77.46;100247.52;1662839;82;26495;-60
2021/04/08 03:04:55;;;;;;;6.35;1.70;;;;;;;2.11;77.70;100250.58;1695144;81;26244;-60
2021/04/08 03:07:32;;;;;;;16.65;3.25;;;;;;;2.05;77.50;100308.83;1657503;84;26222;-61
2021/04/08 03:10:08;;;;;;;11.97;1.92;;;;;;;2.00;77.51;100257.80;1679995;82;25978;-61
2021/04/08 03:12:48;;;;;;;13.75;2.20;;;;;;;1.95;77.40;100280.78;1666706;84;25808;-61
2021/04/08 03:15:27;;;;;;;6.17;2.33;;;;;;;1.89;77.44;100287.47;1658194;83;26185;-61
2021/04/08 03:17:58;;;;;;;10.18;2.98;;;;;;;1.87;77.40;100270.77;1672040;82;25827;-60
2021/04/08 03:20:27;;;;;;;13.58;2.20;;;;;;;1.81;77.32;100274.36;1679586;84;27408;-61
2021/04/08 03:23:00;;;;;;;11.57;3.52;;;;;;;1.79;77.37;100276.16;1716221;82;25864;-61
2021/04/08 03:25:29;;;;;;;9.68;1.85;;;;;;;1.77;77.24;100277.94;1682614;84;25767;-61
2021/04/08 03:27:58;;;;;;;12.75;1.98;;;;;;;1.78;77.32;100284.09;1714595;81;25797;-61
2021/04/08 03:30:27;;;;;;;7.70;2.17;;;;;;;1.77;77.37;100288.52;1700852;81;25926;-62
2021/04/08 03:32:56;;;;;;;7.90;1.52;;;;;;;1.76;77.45;100284.13;1707469;82;25940;-61
2021/04/08 03:35:25;;;;;;;10.25;2.45;;;;;;;1.76;77.37;100293.37;1682321;82;26716;-61
2021/04/08 03:37:54;;;;;;;9.80;2.15;;;;;;;1.78;77.38;100303.47;1710630;81;26151;-61
2021/04/08 03:40:22;;;;;;;15.03;2.12;;;;;;;1.77;77.24;100290.28;1712406;83;26728;-61
2021/04/08 03:42:51;;;;;;;13.30;1.82;;;;;;;1.79;77.21;100293.77;1663536;84;25990;-62
2021/04/08 03:45:20;;;;;;;15.72;3.02;;;;;;;1.78;77.14;100301.27;1690674;83;26046;-61
2021/04/08 03:47:49;;;;;;;11.85;2.15;;;;;;;1.79;77.15;100303.02;1701590;81;25689;-61
2021/04/08 03:50:19;;;;;;;8.78;1.42;;;;;;;1.78;77.02;100298.63;1704806;82;26536;-62
2021/04/08 03:52:47;;;;;;;13.58;2.95;;;;;;;1.78;77.07;100306.56;1687111;82;26593;-61
2021/04/08 03:55:17;;;;;;;10.80;2.67;;;;;;;1.78;76.92;100310.08;1693996;82;25845;-61
2021/04/08 03:57:47;;;;;;;9.23;2.30;;;;;;;1.79;76.87;100310.95;1706389;82;27371;-61
2021/04/08 04:00:17;;;;;;;11.43;2.55;;;;;;;1.80;76.83;100309.61;1690780;83;26562;-61
2021/04/08 04:02:46;;;;;;;;;;;;;;;1.81;76.74;100307.84;1689295;83;25912;-62
2021/04/08 04:05:14;;;;;;;12.80;2.27;;;;;;;1.82;76.66;100321.48;1667760;84;26183;-62
2021/04/08 04:07:49;;;;;;;4.75;1.67;;;;;;;1.82;76.62;100314.42;1681293;83;26960;-62
2021/04/08 04:10:14;;;;;;;5.83;1.32;;;;;;;1.85;76.59;100332.01;1673449;83;30892;-62
2021/04/08 04:12:45;;;;;;;11.15;2.05;;;;;;;1.85;76.55;100339.49;1697467;82;25892;-61
2021/04/08 04:15:14;;;;;;;11.63;2.37;;;;;;;1.86;76.44;100331.12;1720414;82;25868;-61
2021/04/08 04:17:42;;;;;;;11.57;2.52;;;;;;;1.87;76.38;100335.51;1662842;84;25455;-61
2021/04/08 04:20:11;;;;;;;14.98;2.80;;;;;;;1.86;76.26;100335.95;1685454;82;25850;-61
2021/04/08 04:22:41;;;;;;;7.75;2.20;;;;;;;1.87;76.17;100338.15;1688129;83;27605;-61
2021/04/08 04:25:17;;;;;;;9.05;2.35;;;;;;;1.89;76.12;100344.29;1693870;82;25808;-60
2021/04/08 04:27:46;;;;;;;10.55;3.10;;;;;;;1.89;76.06;100349.58;1678070;84;26594;-61
2021/04/08 04:30:17;;;;;;;9.40;2.30;;;;;;;1.91;76.00;100347.34;1693885;82;26300;-61
2021/04/08 04:32:45;;;;;;;18.17;2.50;;;;;;;1.94;75.90;100357.00;1705429;82;25863;-62
2021/04/08 04:35:18;;;;;;;14.93;2.25;;;;;;;1.94;75.85;100362.28;1694950;82;27729;-62
2021/04/08 04:37:47;;;;;;;13.40;2.50;;;;;;;1.94;75.78;100360.97;1670595;83;25876;-62
2021/04/08 04:40:17;;;;;;;14.90;2.85;;;;;;;1.97;75.71;100362.25;1698596;82;26513;-61
2021/04/08 04:42:46;;;;;;;4.78;2.30;;;;;;;2.00;75.68;100375.42;1680005;83;25939;-61
2021/04/08 04:45:16;;;;;;;6.75;2.10;;;;;;;2.01;75.62;100369.69;1688981;82;25889;-61
2021/04/08 04:47:45;;;;;;;13.03;2.80;;;;;;;2.03;75.55;100375.83;1687391;82;27911;-61
2021/04/08 04:50:15;;;;;;;7.08;2.00;;;;;;;2.03;75.40;100383.31;1700196;82;26239;-62
2021/04/08 04:52:44;;;;;;;14.15;2.80;;;;;;;2.05;75.32;100397.38;1692108;83;26756;-61
2021/04/08 04:55:11;;;;;;;10.88;2.80;;;;;;;2.06;75.27;100393.84;1701854;82;26172;-61
2021/04/08 04:57:39;;;;;;;8.90;2.30;;;;;;;2.09;75.17;100398.22;1692854;83;25872;-61
2021/04/08 05:00:10;;;;;;;16.62;2.27;;;;;;;2.09;75.15;100387.20;1694795;82;26404;-61
2021/04/08 05:02:38;;;;;;;;;;;;;;;2.12;75.09;100406.98;1703691;83;25841;-62
2021/04/08 05:05:07;;;;;;;8.88;2.55;;;;;;;2.13;75.02;100406.54;1665002;83;25884;-61
2021/04/08 05:07:35;;;;;;;16.95;2.47;;;;;;;2.14;74.97;100409.61;1680016;83;26499;-62
2021/04/08 05:10:04;;;;;;;12.13;2.87;;;;;;;2.13;74.89;100403.45;1693315;83;25894;-62
2021/04/08 05:12:32;;;;;;;13.22;2.92;;;;;;;2.12;74.74;100406.98;1682646;83;27921;-61
2021/04/08 05:15:00;;;;;;;9.73;2.80;;;;;;;2.13;74.69;100416.67;1670336;82;26548;-61
2021/04/08 05:17:29;;;;;;;8.63;2.47;;;;;;;2.14;74.67;100415.77;1690813;83;25823;-60
2021/04/08 05:19:59;;;;;;;11.18;3.00;;;;;;;2.17;74.64;100419.70;1672476;83;26373;-61
2021/04/08 05:22:26;;;;;;;13.13;2.72;;;;;;;2.19;74.50;100415.27;1683280;83;25841;-60
2021/04/08 05:24:56;;;;;;;10.28;2.30;;;;;;;2.23;74.52;100428.00;1669105;83;27507;-60
2021/04/08 05:27:24;;;;;;;15.23;3.02;;;;;;;2.25;74.39;100416.52;1662226;84;25762;-59
2021/04/08 05:29:51;;;;;;;14.85;3.02;;;;;;;2.30;74.32;100427.48;1695617;82;25733;-60
2021/04/08 05:32:20;;;;;;;14.10;3.75;;;;;;;2.31;74.31;100418.20;1687869;83;25878;-61
2021/04/08 05:34:48;;;;;;;14.23;3.45;;;;;;;2.36;74.21;100426.07;1697783;82;25889;-60
2021/04/08 05:37:16;;;;;;;12.33;3.98;;;;;;;2.37;74.17;100439.28;1694709;83;28366;-61
2021/04/08 05:39:43;;;;;;;17.25;2.83;;;;;;;2.39;74.15;100431.31;1691709;83;25873;-61
2021/04/08 05:42:12;;;;;;;23.25;3.85;;;;;;;2.42;74.13;100432.16;1687912;83;25878;-61
2021/04/08 05:44:40;;;;;;;18.12;3.22;;;;;;;2.44;73.98;100442.27;1661555;84;25841;-61
2021/04/08 05:47:09;;;;;;;15.05;2.87;;;;;;;2.46;73.92;100450.18;1681990;83;26466;-61
2021/04/08 05:49:42;;;;;;;10.85;3.08;;;;;;;2.44;73.80;100449.33;1645035;84;27845;-61
2021/04/08 05:52:10;;;;;;;24.98;4.22;;;;;;;2.46;73.84;100456.34;1667323;83;25500;-61
2021/04/08 05:54:39;;;;;;;14.73;3.02;;;;;;;2.50;73.75;100453.21;1640644;85;25903;-59
2021/04/08 05:57:09;;;;;;;15.03;2.90;;;;;;;2.53;73.73;100469.05;1670955;83;25874;-59
2021/04/08 05:59:37;;;;;;;12.40;3.00;;;;;;;2.54;73.64;100452.27;1669602;83;26494;-59
2021/04/08 06:02:04;;;;;;;23.67;4.60;;;;;;;2.54;73.66;100451.83;1688479;83;26549;-59
2021/04/08 06:04:34;;;;;;;14.68;3.12;;;;;;;2.59;73.48;100471.16;1696364;82;26094;-59
2021/04/08 06:07:02;;;;;;;9.53;2.70;;;;;;;2.57;73.47;100462.81;1697604;82;25913;-58
2021/04/08 06:09:31;;;;;;;19.10;3.17;;;;;;;2.60;73.43;100474.67;1691651;82;26849;-59
2021/04/08 06:11:59;;;;;;;21.85;2.90;;;;;;;2.60;73.32;100473.36;1698033;82;25810;-59
2021/04/08 06:14:27;;;;;;;9.73;2.75;;;;;;;2.60;73.16;100478.16;1704508;83;25677;-60
2021/04/08 06:16:56;;;;;;;9.70;2.30;;;;;;;2.57;73.19;100486.18;1719182;82;26479;-60
2021/04/08 06:19:27;;;;;;;11.70;2.47;;;;;;;2.58;73.11;100475.15;1686704;83;25934;-59
2021/04/08 06:21:54;;;;;;;19.00;3.90;;;;;;;2.63;73.06;100474.61;1689610;82;25843;-61
2021/04/08 06:24:23;;;;;;;20.30;4.12;;;;;;;2.60;73.10;100476.84;1690841;83;25947;-60
2021/04/08 06:26:51;;;;;;;12.82;2.95;;;;;;;2.62;73.06;100479.47;1697125;82;28048;-60
2021/04/08 06:29:19;;;;;;;10.75;2.27;;;;;;;2.64;72.95;100495.33;1676322;82;25883;-63
2021/04/08 06:31:48;;;;;;;17.15;3.00;;;;;;;2.61;72.96;100496.23;1678410;82;26547;-62
2021/04/08 06:34:17;;;;;;;12.80;3.25;;;;;;;2.62;73.03;100507.25;1696587;82;25965;-66
2021/04/08 06:36:46;;;;;;;7.85;2.27;;;;;;;2.59;73.03;100488.80;1680929;83;26039;-65
2021/04/08 06:39:14;;;;;;;13.30;3.40;;;;;;;2.67;73.07;100508.06;1708729;82;27444;-65
2021/04/08 06:41:42;;;;;;;12.33;3.62;;;;;;;2.70;73.08;100514.64;1692504;83;25968;-64
2021/04/08 06:44:15;;;;;;;11.33;3.83;;;;;;;2.71;73.07;100513.74;1646526;84;26105;-65
2021/04/08 06:46:44;;;;;;;16.15;3.58;;;;;;;2.73;73.05;100511.95;1679796;83;25653;-65
2021/04/08 06:49:29;;;;;;;13.10;3.37;;;;;;;2.75;72.97;100522.07;1677976;83;25845;-65
2021/04/08 06:51:58;;;;;;;11.38;2.45;;;;;;;2.73;72.98;100525.19;1654133;85;27893;-63
2021/04/08 06:54:29;;;;;;;18.98;3.55;;;;;;;2.76;73.00;100526.91;1701694;82;25958;-63
2021/04/08 06:56:58;;;;;;;13.18;3.40;;;;;;;2.76;72.99;100533.53;1696613;82;25806;-64
2021/04/08 06:59:28;;;;;;;14.07;3.77;;;;;;;2.78;73.04;100542.33;1684955;82;25932;-63
2021/04/08 07:01:58;;;;;;;13.15;3.65;;;;;;;2.79;73.08;100535.69;1688932;82;26769;-64
2021/04/08 07:04:26;;;;;;;14.63;3.35;;;;;;;2.79;73.10;100540.11;1706740;82;25769;-62
2021/04/08 07:06:55;;;;;;;11.22;2.90;;;;;;;2.81;73.11;100545.81;1686117;82;26550;-64
2021/04/08 07:09:23;;;;;;;11.28;3.67;;;;;;;2.82;73.12;100554.17;1686870;83;26465;-63
2021/04/08 07:11:52;;;;;;;18.57;3.47;;;;;;;2.82;73.15;100552.85;1678069;83;26689;-61
2021/04/08 07:14:20;;;;;;;17.12;3.70;;;;;;;2.87;73.18;100555.44;1692341;83;26020;-60
2021/04/08 07:16:48;;;;;;;12.33;3.20;;;;;;;2.87;73.19;100571.32;1689899;83;27835;-60
2021/04/08 07:19:20;;;;;;;15.00;4.10;;;;;;;2.83;73.20;100565.19;1664322;84;25756;-67
2021/04/08 07:21:51;;;;;;;15.03;3.98;;;;;;;2.88;73.25;100574.40;1687654;82;25786;-64
2021/04/08 07:24:24;;;;;;;26.00;3.80;;;;;;;2.89;73.30;100566.44;1674603;83;25922;-67
2021/04/08 07:27:09;;;;;;;12.45;4.22;;;;;;;2.91;73.31;100571.27;1661735;83;25827;-59
2021/04/08 07:29:51;;;;;;;19.65;5.10;;;;;;;2.94;73.29;100571.22;1641898;85;26366;-60
2021/04/08 07:32:38;;;;;;;13.08;3.87;;;;;;;2.99;73.29;100603.37;1683596;82;26005;-61
2021/04/08 07:35:18;;;;;;;13.32;4.15;;;;;;;3.06;73.25;100577.24;1656358;84;26018;-61
2021/04/08 07:37:58;;;;;;;11.12;3.72;;;;;;;3.11;73.13;100572.77;1669938;84;25927;-61
2021/04/08 07:40:28;;;;;;;18.80;4.28;;;;;;;3.24;73.16;100576.98;1679476;82;25823;-61
2021/04/08 07:42:56;;;;;;;18.77;4.20;;;;;;;3.35;72.91;100591.40;1685288;83;27544;-61
2021/04/08 07:45:33;;;;;;;18.23;3.77;;;;;;;3.38;72.65;100608.58;1681384;82;25918;-64
2021/04/08 07:48:06;;;;;;;15.98;5.30;;;;;;;3.34;72.71;100597.59;1684159;81;25833;-62
2021/04/08 07:50:38;;;;;;;12.68;4.22;;;;;;;3.30;72.75;100620.60;1685508;83;26475;-59
2021/04/08 07:53:06;;;;;;;15.15;3.60;;;;;;;3.27;72.95;100614.02;1692715;81;25541;-61
2021/04/08 07:55:36;;;;;;;12.23;2.90;;;;;;;3.25;72.98;100618.47;1697408;83;27901;-62
2021/04/08 07:58:13;;;;;;;12.90;3.50;;;;;;;3.21;73.21;100623.37;1687959;81;26651;-62
2021/04/08 08:00:46;;;;;;;13.08;4.33;;;;;;;3.16;73.58;100623.44;1691015;83;25914;-61
2021/04/08 08:03:25;;;;;;;10.82;3.95;;;;;;;3.09;73.64;100631.48;1696773;81;26195;-60
2021/04/08 08:05:58;;;;;;;15.60;4.33;;;;;;;3.07;73.91;100646.07;1689262;81;25865;-61
2021/04/08 08:08:44;;;;;;;10.88;3.50;;;;;;;3.04;74.14;100635.52;1691697;81;27744;-61
2021/04/08 08:11:15;;;;;;;14.07;4.65;;;;;;;3.02;74.32;100646.58;1710545;82;27977;-60
2021/04/08 08:13:55;;;;;;;27.32;4.53;;;;;;;3.02;74.50;100638.64;1685472;83;25962;-58
2021/04/08 08:16:27;;;;;;;19.45;5.95;;;;;;;3.03;74.45;100656.72;1678406;83;26426;-59
2021/04/08 08:18:59;;;;;;;14.98;3.72;;;;;;;3.09;74.72;100664.59;1641097;85;25980;-60
2021/04/08 08:21:40;;;;;;;17.32;6.50;;;;;;;3.10;74.81;100655.30;1640163;85;26292;-59
2021/04/08 08:24:11;;;;;;;18.98;5.10;;;;;;;3.05;74.77;100656.25;1664349;84;26454;-59
2021/04/08 08:26:46;;;;;;;16.37;4.03;;;;;;;3.10;74.88;100665.02;1661654;84;25943;-60
2021/04/08 08:29:21;;;;;;;17.05;4.40;;;;;;;3.12;74.76;100668.52;1666118;84;26476;-60
2021/04/08 08:31:58;;;;;;;15.05;5.03;;;;;;;3.16;74.84;100664.94;1637450;84;26426;-61
2021/04/08 08:34:39;;;;;;;20.43;4.87;;;;;;;3.24;74.97;100671.89;1678769;82;27463;-60
2021/04/08 08:37:14;;;;;;;22.48;5.22;;;;;;;3.27;74.80;100673.63;1694309;82;26373;-59
2021/04/08 08:39:48;;;;;;;15.28;3.62;;;;;;;3.30;74.74;100685.95;1681903;82;26712;-61
2021/04/08 08:42:20;;;;;;;14.98;4.28;;;;;;;3.31;74.54;100691.23;1675172;83;26467;-61
2021/04/08 08:44:50;;;;;;;16.23;4.20;;;;;;;3.34;74.41;100681.92;1656756;84;25915;-61
2021/04/08 08:47:30;;;;;;;16.20;3.92;;;;;;;3.35;74.29;100696.04;1666012;83;27787;-61
2021/04/08 08:50:10;;;;;;;17.45;3.55;;;;;;;3.32;73.94;100691.66;1661546;83;25899;-61
2021/04/08 08:52:43;;;;;;;12.00;3.42;;;;;;;3.29;73.91;100712.89;1650148;83;25901;-60
2021/04/08 08:55:20;;;;;;;12.88;4.10;;;;;;;3.17;73.77;100702.00;1678986;83;25653;-59
2021/04/08 08:57:55;;;;;;;11.28;3.10;;;;;;;3.05;73.92;100721.13;1615943;85;25760;-60
2021/04/08 09:00:27;;;;;;;16.25;3.83;;;;;;;2.96;74.05;100718.59;1650918;83;26484;-62
2021/04/08 09:02:57;;;;;;;23.57;3.92;;;;;;;2.83;74.11;100714.75;1655137;83;26110;-62
2021/04/08 09:05:31;;;;;;;10.95;3.12;;;;;;;2.78;74.27;100724.95;1685703;83;25803;-61
2021/04/08 09:08:10;;;;;;;10.70;3.10;;;;;;;2.80;74.54;100730.66;1659514;83;26191;-60
2021/04/08 09:10:41;;;;;;;21.60;3.17;;;;;;;2.87;74.76;100728.38;1636842;85;26381;-61
2021/04/08 09:13:09;;;;;;;15.38;3.30;;;;;;;2.91;74.81;100776.88;1658918;83;27503;-62
2021/04/08 09:15:39;;;;;;;9.60;3.35;;;;;;;2.88;74.69;100747.34;1661743;84;25897;-62
2021/04/08 09:18:09;;;;;;;8.58;2.85;;;;;;;2.86;74.66;100735.89;1672323;83;34363;-61
2021/04/08 09:20:38;;;;;;;12.25;3.25;;;;;;;2.87;74.76;100740.73;1661100;84;26879;-61
2021/04/08 09:23:13;;;;;;;17.60;2.92;;;;;;;2.90;74.80;100753.50;1687034;81;25949;-61
2021/04/08 09:25:58;;;;;;;13.62;3.95;;;;;;;2.92;74.84;100757.00;1689721;82;25856;-61
2021/04/08 09:28:30;;;;;;;8.70;3.45;;;;;;;2.92;74.79;100766.27;1615635;83;26030;-61
2021/04/08 09:31:05;;;;;;;17.48;5.08;;;;;;;2.92;74.80;100757.00;1651271;83;25600;-62
2021/04/08 09:33:49;;;;;;;19.87;3.70;;;;;;;2.98;74.87;100765.78;1686819;82;25817;-65
2021/04/08 09:36:26;;;;;;;22.02;3.83;;;;;;;3.01;74.89;100782.95;1655137;83;26427;-66
2021/04/08 09:39:02;;;;;;;12.98;2.70;;;;;;;3.05;74.85;100778.06;1631121;84;26268;-64
2021/04/08 09:41:56;;;;;;;11.93;3.33;;;;;;;3.10;74.95;100789.48;1639690;85;26482;-62
2021/04/08 09:44:25;;;;;;;21.73;4.47;;;;;;;3.12;75.00;100777.10;1660023;85;25814;-62
2021/04/08 09:47:00;;;;;;;13.40;4.55;;;;;;;3.18;75.04;100791.60;1660021;83;26522;-66
2021/04/08 09:49:42;;;;;;;17.95;3.87;;;;;;;3.24;75.09;100775.20;1676944;83;25903;-65
2021/04/08 09:52:14;;;;;;;13.83;4.50;;;;;;;3.36;75.09;100788.75;1691996;81;28449;-62
2021/04/08 09:54:58;;;;;;;13.50;3.62;;;;;;;3.41;74.89;100797.52;1685570;81;26619;-61
2021/04/08 09:57:37;;;;;;;11.65;3.45;;;;;;;3.45;74.78;100795.27;1690936;82;25860;-61
2021/04/08 10:00:13;;;;;;;21.75;5.65;;;;;;;3.46;74.60;100815.56;1689136;82;25869;-61
2021/04/08 10:03:00;;;;;;;15.83;4.05;;;;;;;3.48;74.53;100803.63;1698913;82;26714;-62
2021/04/08 10:05:39;;;;;;;10.55;4.35;;;;;;;3.55;74.57;100812.80;1710916;82;27904;-63
2021/04/08 10:08:10;;;;;;;16.95;4.80;;;;;;;3.69;74.56;100815.73;1709948;82;25862;-61
2021/04/08 10:10:47;;;;;;;20.80;4.87;;;;;;;3.79;74.46;100804.12;1689162;83;25826;-61
2021/04/08 10:13:25;;;;;;;13.70;4.90;;;;;;;3.91;74.44;100807.48;1683667;81;26243;-61
2021/04/08 10:15:58;;;;;;;10.90;4.22;;;;;;;4.03;74.21;100807.77;1666601;83;25834;-62
2021/04/08 10:18:31;;;;;;;20.50;4.95;;;;;;;4.08;74.18;100820.96;1653191;84;27796;-62
2021/04/08 10:21:05;;;;;;;14.63;4.92;;;;;;;4.11;74.07;100823.13;1614024;85;25856;-61
2021/04/08 10:23:40;;;;;;;17.90;4.65;;;;;;;4.05;73.80;100828.96;1657367;83;25854;-61
2021/04/08 10:26:32;;;;;;;24.70;5.80;;;;;;;3.98;73.56;100832.14;1646250;84;26221;-61
2021/04/08 10:29:04;;;;;;;16.55;4.83;;;;;;;3.92;73.51;100828.25;1691327;83;25872;-61
2021/04/08 10:31:37;;;;;;;19.92;5.40;;;;;;;3.92;73.58;100848.14;1648499;84;26392;-62
2021/04/08 10:34:19;;;;;;;12.63;4.42;;;;;;;3.94;73.49;100846.34;1655631;83;25922;-61
2021/04/08 10:36:55;;;;;;;18.12;5.17;;;;;;;4.00;73.16;100838.75;1640642;84;25984;-62
2021/04/08 10:39:30;;;;;;;15.25;3.83;;;;;;;3.99;73.05;100842.30;1710315;82;26156;-64
2021/04/08 10:42:12;;;;;;;16.30;4.55;;;;;;;4.03;72.96;100863.91;1711238;81;25901;-63
2021/04/08 10:44:46;;;;;;;17.32;3.98;;;;;;;4.04;72.60;100858.58;1709669;81;27971;-65
2021/04/08 10:47:24;;;;;;;15.85;4.37;;;;;;;4.02;72.37;100864.36;1650731;83;25995;-63
2021/04/08 10:49:58;;;;;;;15.32;4.60;;;;;;;4.10;72.59;100862.93;1646336;83;25929;-63
2021/04/08 10:52:35;;;;;;;13.18;4.10;;;;;;;4.23;72.58;100878.66;1661137;83;25901;-63
2021/04/08 10:55:09;;;;;;;18.62;4.90;;;;;;;4.35;72.42;100884.25;1690025;82;26372;-63
2021/04/08 10:57:39;;;;;;;18.57;4.67;;;;;;;4.47;72.55;100871.25;1683302;83;27847;-61
2021/04/08 11:00:12;;;;;;;22.87;4.60;;;;;;;4.63;72.35;100874.10;1686869;82;25915;-65
2021/04/08 11:02:43;;;;;;;21.25;4.15;;;;;;;4.75;72.00;100873.91;1654777;84;25939;-71
2021/04/08 11:05:23;;;;;;;16.73;4.70;;;;;;;4.93;72.22;100874.06;1650035;83;25991;-64
2021/04/08 11:07:57;;;;;;;17.40;4.33;;;;;;;4.99;71.98;100870.42;1653409;85;25889;-65
2021/04/08 11:10:28;;;;;;;11.33;3.77;;;;;;;4.96;71.62;100876.66;1658153;84;27880;-64
2021/04/08 11:12:58;;;;;;;19.50;5.72;;;;;;;4.88;71.47;100872.81;1680779;82;25996;-64
2021/04/08 11:15:30;;;;;;;12.37;3.80;;;;;;;4.85;71.29;100888.80;1680792;83;25912;-63
2021/04/08 11:18:03;;;;;;;15.43;4.37;;;;;;;4.72;71.37;100898.30;1653559;84;26988;-63
2021/04/08 11:20:40;;;;;;;15.13;3.83;;;;;;;4.48;71.62;100903.08;1636575;86;26512;-65
2021/04/08 11:23:11;;;;;;;19.30;4.58;;;;;;;4.37;72.07;100894.84;1629714;85;27449;-63
2021/04/08 11:25:41;;;;;;;11.88;3.90;;;;;;;4.24;72.33;100914.91;1651017;85;25852;-63
2021/04/08 11:28:10;;;;;;;14.10;4.05;;;;;;;3.95;72.54;100917.50;1663181;83;26010;-63
2021/04/08 11:30:44;;;;;;;14.93;4.17;;;;;;;3.67;73.42;100942.11;1661373;84;26041;-63
2021/04/08 11:33:24;;;;;;;20.15;5.17;;;;;;;3.33;73.81;100942.44;1628073;85;25809;-60
2021/04/08 11:35:52;;;;;;;21.25;4.53;;;;;;;3.14;74.97;100959.37;1654801;84;26428;-63
2021/04/08 11:38:25;;;;;;;11.95;4.30;;;;;;;3.05;74.99;100940.91;1656395;84;25895;-62
2021/04/08 11:41:06;;;;;;;20.23;4.55;;;;;;;3.06;75.18;100963.86;1651046;83;25788;-61
2021/04/08 11:43:48;;;;;;;11.75;3.87;;;;;;;3.08;75.60;100950.16;1707808;81;26905;-62
2021/04/08 11:46:30;;;;;;;16.10;4.08;;;;;;;3.09;75.87;100943.53;1691440;82;25833;-62
2021/04/08 11:49:01;;;;;;;19.42;4.72;;;;;;;3.10;76.48;100945.73;1685379;82;28508;-63
2021/04/08 11:51:31;;;;;;;9.70;3.62;;;;;;;3.07;76.74;100947.95;1695145;82;26533;-64